sensor_id;sensor_type;location;lat;lon;timestamp;temperature;humidity
4376;DHT22;2202;50.866;12.750;2022-09-13T00:01:24;13.10;90.00
4376;DHT22;2202;50.866;12.750;2022-09-13T00:03:53;13.10;89.80
4376;DHT22;2202;50.866;12.750;2022-09-13T00:06:20;13.10;89.60
4376;DHT22;2202;50.866;12.750;2022-09-13T00:08:47;13.10;89.60
4376;DHT22;2202;50.866;12.750;2022-09-13T00:11:17;13.10;89.60
4376;DHT22;2202;50.866;12.750;2022-09-13T00:13:44;13.10;89.80
4376;DHT22;2202;50.866;12.750;2022-09-13T00:16:13;13.20;89.60
4376;DHT22;2202;50.866;12.750;2022-09-13T00:18:40;13.10;89.60
4376;DHT22;2202;50.866;12.750;2022-09-13T00:21:11;13.10;89.80
4376;DHT22;2202;50.866;12.750;2022-09-13T00:23:38;13.10;89.80
4376;DHT22;2202;50.866;12.750;2022-09-13T00:26:07;13.10;90.00
4376;DHT22;2202;50.866;12.750;2022-09-13T00:28:35;13.10;90.00
4376;DHT22;2202;50.866;12.750;2022-09-13T00:31:03;13.10;90.10
4376;DHT22;2202;50.866;12.750;2022-09-13T00:33:31;13.10;90.00
4376;DHT22;2202;50.866;12.750;2022-09-13T00:35:58;13.10;90.20
4376;DHT22;2202;50.866;12.750;2022-09-13T00:38:26;13.00;90.20
4376;DHT22;2202;50.866;12.750;2022-09-13T00:40:53;13.10;90.20
4376;DHT22;2202;50.866;12.750;2022-09-13T00:43:36;13.10;90.10
4376;DHT22;2202;50.866;12.750;2022-09-13T00:46:06;13.10;90.10
4376;DHT22;2202;50.866;12.750;2022-09-13T00:48:33;13.10;90.00
4376;DHT22;2202;50.866;12.750;2022-09-13T00:51:02;13.10;89.80
4376;DHT22;2202;50.866;12.750;2022-09-13T00:53:33;13.10;89.80
4376;DHT22;2202;50.866;12.750;2022-09-13T00:56:05;13.10;89.80
4376;DHT22;2202;50.866;12.750;2022-09-13T00:58:37;13.20;89.80
4376;DHT22;2202;50.866;12.750;2022-09-13T01:01:09;13.20;89.60
4376;DHT22;2202;50.866;12.750;2022-09-13T01:03:37;13.20;89.40
4376;DHT22;2202;50.866;12.750;2022-09-13T01:06:08;13.20;89.40
4376;DHT22;2202;50.866;12.750;2022-09-13T01:08:40;13.20;89.60
4376;DHT22;2202;50.866;12.750;2022-09-13T01:11:12;13.20;89.60
4376;DHT22;2202;50.866;12.750;2022-09-13T01:13:43;13.20;89.40
4376;DHT22;2202;50.866;12.750;2022-09-13T01:16:10;13.20;89.20
4376;DHT22;2202;50.866;12.750;2022-09-13T01:18:37;13.30;89.20
4376;DHT22;2202;50.866;12.750;2022-09-13T01:21:24;13.30;89.20
4376;DHT22;2202;50.866;12.750;2022-09-13T01:27:36;13.30;88.80
4376;DHT22;2202;50.866;12.750;2022-09-13T01:30:14;13.30;88.40
4376;DHT22;2202;50.866;12.750;2022-09-13T01:33:19;13.30;88.40
4376;DHT22;2202;50.866;12.750;2022-09-13T01:35:59;13.30;88.40
4376;DHT22;2202;50.866;12.750;2022-09-13T01:38:42;13.30;88.40
4376;DHT22;2202;50.866;12.750;2022-09-13T01:41:22;13.30;88.80
4376;DHT22;2202;50.866;12.750;2022-09-13T01:43:56;13.30;88.80
4376;DHT22;2202;50.866;12.750;2022-09-13T01:46:31;13.30;88.80
4376;DHT22;2202;50.866;12.750;2022-09-13T01:49:07;13.30;88.20
4376;DHT22;2202;50.866;12.750;2022-09-13T01:51:40;13.30;88.20
4376;DHT22;2202;50.866;12.750;2022-09-13T01:54:14;13.30;88.40
4376;DHT22;2202;50.866;12.750;2022-09-13T01:56:50;13.30;88.20
4376;DHT22;2202;50.866;12.750;2022-09-13T01:59:22;13.30;87.80
4376;DHT22;2202;50.866;12.750;2022-09-13T02:01:55;13.30;87.60
4376;DHT22;2202;50.866;12.750;2022-09-13T02:04:28;13.30;87.60
4376;DHT22;2202;50.866;12.750;2022-09-13T02:07:01;13.40;87.40
4376;DHT22;2202;50.866;12.750;2022-09-13T02:09:33;13.40;87.20
4376;DHT22;2202;50.866;12.750;2022-09-13T02:12:04;13.40;87.20
4376;DHT22;2202;50.866;12.750;2022-09-13T02:14:35;13.40;87.20
4376;DHT22;2202;50.866;12.750;2022-09-13T02:17:06;13.40;87.60
4376;DHT22;2202;50.866;12.750;2022-09-13T02:19:38;13.30;87.60
4376;DHT22;2202;50.866;12.750;2022-09-13T02:22:08;13.30;87.80
4376;DHT22;2202;50.866;12.750;2022-09-13T02:24:40;13.30;88.00
4376;DHT22;2202;50.866;12.750;2022-09-13T02:27:10;13.30;88.00
4376;DHT22;2202;50.866;12.750;2022-09-13T02:29:39;13.40;88.20
4376;DHT22;2202;50.866;12.750;2022-09-13T02:32:12;13.40;88.20
4376;DHT22;2202;50.866;12.750;2022-09-13T02:34:43;13.40;88.40
4376;DHT22;2202;50.866;12.750;2022-09-13T02:37:12;13.40;88.80
4376;DHT22;2202;50.866;12.750;2022-09-13T02:39:46;13.40;88.80
4376;DHT22;2202;50.866;12.750;2022-09-13T02:42:19;13.40;88.80
4376;DHT22;2202;50.866;12.750;2022-09-13T02:44:49;13.40;88.60
4376;DHT22;2202;50.866;12.750;2022-09-13T02:47:32;13.40;88.60
4376;DHT22;2202;50.866;12.750;2022-09-13T02:50:18;13.50;88.80
4376;DHT22;2202;50.866;12.750;2022-09-13T02:52:51;13.50;88.80
4376;DHT22;2202;50.866;12.750;2022-09-13T02:55:22;13.50;89.00
4376;DHT22;2202;50.866;12.750;2022-09-13T02:57:58;13.50;89.00
4376;DHT22;2202;50.866;12.750;2022-09-13T03:00:26;13.50;89.00
4376;DHT22;2202;50.866;12.750;2022-09-13T03:02:56;13.50;89.20
4376;DHT22;2202;50.866;12.750;2022-09-13T03:05:24;13.50;89.00
4376;DHT22;2202;50.866;12.750;2022-09-13T03:07:51;13.50;89.20
4376;DHT22;2202;50.866;12.750;2022-09-13T03:10:18;13.50;89.60
4376;DHT22;2202;50.866;12.750;2022-09-13T03:13:00;13.60;89.80
4376;DHT22;2202;50.866;12.750;2022-09-13T03:15:38;13.60;89.60
4376;DHT22;2202;50.866;12.750;2022-09-13T03:18:16;13.70;89.20
4376;DHT22;2202;50.866;12.750;2022-09-13T03:20:52;13.80;88.80
4376;DHT22;2202;50.866;12.750;2022-09-13T03:23:32;13.80;88.60
4376;DHT22;2202;50.866;12.750;2022-09-13T03:26:27;13.90;88.60
4376;DHT22;2202;50.866;12.750;2022-09-13T03:29:09;14.10;88.00
4376;DHT22;2202;50.866;12.750;2022-09-13T03:31:44;14.20;87.20
4376;DHT22;2202;50.866;12.750;2022-09-13T03:34:22;14.40;86.40
4376;DHT22;2202;50.866;12.750;2022-09-13T03:36:55;14.50;86.00
4376;DHT22;2202;50.866;12.750;2022-09-13T03:39:31;14.60;85.40
4376;DHT22;2202;50.866;12.750;2022-09-13T03:42:03;14.70;85.00
4376;DHT22;2202;50.866;12.750;2022-09-13T03:44:33;14.70;85.20
4376;DHT22;2202;50.866;12.750;2022-09-13T03:47:03;14.70;84.60
4376;DHT22;2202;50.866;12.750;2022-09-13T03:49:32;14.80;84.20
4376;DHT22;2202;50.866;12.750;2022-09-13T03:52:02;14.80;84.60
4376;DHT22;2202;50.866;12.750;2022-09-13T03:54:31;14.80;84.20
4376;DHT22;2202;50.866;12.750;2022-09-13T03:57:09;14.80;83.80
4376;DHT22;2202;50.866;12.750;2022-09-13T03:59:38;14.80;83.80
4376;DHT22;2202;50.866;12.750;2022-09-13T04:02:06;14.80;84.20
4376;DHT22;2202;50.866;12.750;2022-09-13T04:04:38;14.80;83.80
4376;DHT22;2202;50.866;12.750;2022-09-13T04:07:06;14.80;83.60
4376;DHT22;2202;50.866;12.750;2022-09-13T04:09:33;14.80;83.20
4376;DHT22;2202;50.866;12.750;2022-09-13T04:12:00;14.80;83.40
4376;DHT22;2202;50.866;12.750;2022-09-13T04:14:27;14.70;84.20
4376;DHT22;2202;50.866;12.750;2022-09-13T04:16:56;14.60;84.60
4376;DHT22;2202;50.866;12.750;2022-09-13T04:19:24;14.50;85.20
4376;DHT22;2202;50.866;12.750;2022-09-13T04:21:54;14.50;84.80
4376;DHT22;2202;50.866;12.750;2022-09-13T04:24:24;14.50;85.00
4376;DHT22;2202;50.866;12.750;2022-09-13T04:26:52;14.50;85.00
4376;DHT22;2202;50.866;12.750;2022-09-13T04:29:21;14.50;85.40
4376;DHT22;2202;50.866;12.750;2022-09-13T04:31:49;14.40;85.60
4376;DHT22;2202;50.866;12.750;2022-09-13T04:34:17;14.30;86.40
4376;DHT22;2202;50.866;12.750;2022-09-13T04:36:44;14.40;86.20
4376;DHT22;2202;50.866;12.750;2022-09-13T04:39:13;14.40;86.20
4376;DHT22;2202;50.866;12.750;2022-09-13T04:41:40;14.40;86.00
4376;DHT22;2202;50.866;12.750;2022-09-13T04:44:09;14.50;85.40
4376;DHT22;2202;50.866;12.750;2022-09-13T04:46:36;14.50;85.60
4376;DHT22;2202;50.866;12.750;2022-09-13T04:49:03;14.50;85.60
4376;DHT22;2202;50.866;12.750;2022-09-13T04:51:30;14.50;86.00
4376;DHT22;2202;50.866;12.750;2022-09-13T04:53:57;14.50;85.80
4376;DHT22;2202;50.866;12.750;2022-09-13T04:56:26;14.60;85.20
4376;DHT22;2202;50.866;12.750;2022-09-13T04:58:54;14.60;85.60
4376;DHT22;2202;50.866;12.750;2022-09-13T05:01:22;14.60;85.80
4376;DHT22;2202;50.866;12.750;2022-09-13T05:03:50;14.70;84.80
4376;DHT22;2202;50.866;12.750;2022-09-13T05:06:17;14.80;84.60
4376;DHT22;2202;50.866;12.750;2022-09-13T05:08:48;14.80;84.60
4376;DHT22;2202;50.866;12.750;2022-09-13T05:11:16;14.90;84.20
4376;DHT22;2202;50.866;12.750;2022-09-13T05:13:48;15.00;83.80
4376;DHT22;2202;50.866;12.750;2022-09-13T05:16:17;15.00;83.60
4376;DHT22;2202;50.866;12.750;2022-09-13T05:18:44;15.00;83.80
4376;DHT22;2202;50.866;12.750;2022-09-13T05:21:11;14.90;83.80
4376;DHT22;2202;50.866;12.750;2022-09-13T05:23:38;14.90;84.20
4376;DHT22;2202;50.866;12.750;2022-09-13T05:26:06;14.90;84.20
4376;DHT22;2202;50.866;12.750;2022-09-13T05:28:35;14.90;84.20
4376;DHT22;2202;50.866;12.750;2022-09-13T05:31:05;14.90;84.20
4376;DHT22;2202;50.866;12.750;2022-09-13T05:33:34;14.90;84.20
4376;DHT22;2202;50.866;12.750;2022-09-13T05:36:01;14.90;83.60
4376;DHT22;2202;50.866;12.750;2022-09-13T05:38:28;15.00;83.60
4376;DHT22;2202;50.866;12.750;2022-09-13T05:40:56;15.00;83.80
4376;DHT22;2202;50.866;12.750;2022-09-13T05:43:24;15.00;83.80
4376;DHT22;2202;50.866;12.750;2022-09-13T05:45:59;15.10;84.00
4376;DHT22;2202;50.866;12.750;2022-09-13T05:48:28;15.10;83.60
4376;DHT22;2202;50.866;12.750;2022-09-13T05:50:55;15.20;83.60
4376;DHT22;2202;50.866;12.750;2022-09-13T05:53:22;15.30;83.60
4376;DHT22;2202;50.866;12.750;2022-09-13T05:55:48;15.40;83.40
4376;DHT22;2202;50.866;12.750;2022-09-13T05:58:15;15.50;82.80
4376;DHT22;2202;50.866;12.750;2022-09-13T06:00:42;15.60;82.20
4376;DHT22;2202;50.866;12.750;2022-09-13T06:03:09;15.70;81.20
4376;DHT22;2202;50.866;12.750;2022-09-13T06:05:37;15.80;80.00
4376;DHT22;2202;50.866;12.750;2022-09-13T06:08:04;15.80;81.40
4376;DHT22;2202;50.866;12.750;2022-09-13T06:10:32;15.70;81.40
4376;DHT22;2202;50.866;12.750;2022-09-13T06:12:59;15.70;81.40
4376;DHT22;2202;50.866;12.750;2022-09-13T06:15:26;15.70;82.00
4376;DHT22;2202;50.866;12.750;2022-09-13T06:17:53;15.70;82.20
4376;DHT22;2202;50.866;12.750;2022-09-13T06:20:20;15.70;81.40
4376;DHT22;2202;50.866;12.750;2022-09-13T06:22:48;15.80;81.80
4376;DHT22;2202;50.866;12.750;2022-09-13T06:25:15;15.80;82.00
4376;DHT22;2202;50.866;12.750;2022-09-13T06:27:42;15.80;82.80
4376;DHT22;2202;50.866;12.750;2022-09-13T06:30:10;15.80;82.80
4376;DHT22;2202;50.866;12.750;2022-09-13T06:32:37;15.90;81.40
4376;DHT22;2202;50.866;12.750;2022-09-13T06:35:05;16.00;81.80
4376;DHT22;2202;50.866;12.750;2022-09-13T06:37:32;16.00;82.60
4376;DHT22;2202;50.866;12.750;2022-09-13T06:40:01;16.00;81.20
4376;DHT22;2202;50.866;12.750;2022-09-13T06:42:29;16.10;81.60
4376;DHT22;2202;50.866;12.750;2022-09-13T06:44:56;16.20;80.60
4376;DHT22;2202;50.866;12.750;2022-09-13T06:47:23;16.20;80.20
4376;DHT22;2202;50.866;12.750;2022-09-13T06:49:50;16.30;80.20
4376;DHT22;2202;50.866;12.750;2022-09-13T06:52:17;16.40;79.40
4376;DHT22;2202;50.866;12.750;2022-09-13T06:54:44;16.60;78.80
4376;DHT22;2202;50.866;12.750;2022-09-13T06:57:12;16.70;78.00
4376;DHT22;2202;50.866;12.750;2022-09-13T06:59:39;16.80;77.80
4376;DHT22;2202;50.866;12.750;2022-09-13T07:02:06;17.00;76.60
4376;DHT22;2202;50.866;12.750;2022-09-13T07:04:33;17.10;76.00
4376;DHT22;2202;50.866;12.750;2022-09-13T07:07:00;17.10;75.80
4376;DHT22;2202;50.866;12.750;2022-09-13T07:09:27;17.10;74.80
4376;DHT22;2202;50.866;12.750;2022-09-13T07:11:54;17.10;75.80
4376;DHT22;2202;50.866;12.750;2022-09-13T07:14:24;17.00;75.60
4376;DHT22;2202;50.866;12.750;2022-09-13T07:16:52;17.00;75.80
4376;DHT22;2202;50.866;12.750;2022-09-13T07:19:20;17.00;79.00
4376;DHT22;2202;50.866;12.750;2022-09-13T07:21:48;17.10;76.20
4376;DHT22;2202;50.866;12.750;2022-09-13T07:24:16;17.40;76.00
4376;DHT22;2202;50.866;12.750;2022-09-13T07:26:43;17.50;77.40
4376;DHT22;2202;50.866;12.750;2022-09-13T07:29:12;17.80;75.40
4376;DHT22;2202;50.866;12.750;2022-09-13T07:31:44;17.90;73.00
4376;DHT22;2202;50.866;12.750;2022-09-13T07:34:12;18.00;75.00
4376;DHT22;2202;50.866;12.750;2022-09-13T07:36:40;18.10;74.80
4376;DHT22;2202;50.866;12.750;2022-09-13T07:39:07;18.00;74.40
4376;DHT22;2202;50.866;12.750;2022-09-13T07:41:34;17.90;73.20
4376;DHT22;2202;50.866;12.750;2022-09-13T07:44:02;17.80;75.60
4376;DHT22;2202;50.866;12.750;2022-09-13T07:46:31;17.70;77.40
4376;DHT22;2202;50.866;12.750;2022-09-13T07:49:00;17.70;77.00
4376;DHT22;2202;50.866;12.750;2022-09-13T07:51:28;17.80;75.00
4376;DHT22;2202;50.866;12.750;2022-09-13T07:53:57;17.60;76.60
4376;DHT22;2202;50.866;12.750;2022-09-13T07:56:26;17.50;76.80
4376;DHT22;2202;50.866;12.750;2022-09-13T07:58:54;17.40;77.60
4376;DHT22;2202;50.866;12.750;2022-09-13T08:01:22;17.40;79.20
4376;DHT22;2202;50.866;12.750;2022-09-13T08:03:51;17.30;80.20
4376;DHT22;2202;50.866;12.750;2022-09-13T08:06:20;17.20;80.20
4376;DHT22;2202;50.866;12.750;2022-09-13T08:08:47;17.10;80.80
4376;DHT22;2202;50.866;12.750;2022-09-13T08:11:16;17.00;81.60
4376;DHT22;2202;50.866;12.750;2022-09-13T08:13:44;17.00;80.40
4376;DHT22;2202;50.866;12.750;2022-09-13T08:16:11;17.10;80.60
4376;DHT22;2202;50.866;12.750;2022-09-13T08:18:42;17.20;80.00
4376;DHT22;2202;50.866;12.750;2022-09-13T08:21:09;17.20;81.00
4376;DHT22;2202;50.866;12.750;2022-09-13T08:23:37;17.20;81.20
4376;DHT22;2202;50.866;12.750;2022-09-13T08:26:05;17.10;80.00
4376;DHT22;2202;50.866;12.750;2022-09-13T08:28:34;17.00;80.80
4376;DHT22;2202;50.866;12.750;2022-09-13T08:31:05;17.00;82.20
4376;DHT22;2202;50.866;12.750;2022-09-13T08:33:33;17.10;82.40
4376;DHT22;2202;50.866;12.750;2022-09-13T08:36:01;17.10;83.00
4376;DHT22;2202;50.866;12.750;2022-09-13T08:38:28;17.00;83.60
4376;DHT22;2202;50.866;12.750;2022-09-13T08:40:58;17.10;84.20
4376;DHT22;2202;50.866;12.750;2022-09-13T08:43:38;17.10;83.60
4376;DHT22;2202;50.866;12.750;2022-09-13T08:46:11;17.20;82.60
4376;DHT22;2202;50.866;12.750;2022-09-13T08:48:43;17.20;83.00
4376;DHT22;2202;50.866;12.750;2022-09-13T08:51:31;17.30;83.80
4376;DHT22;2202;50.866;12.750;2022-09-13T08:53:58;17.40;84.40
4376;DHT22;2202;50.866;12.750;2022-09-13T08:56:37;17.50;82.60
4376;DHT22;2202;50.866;12.750;2022-09-13T08:59:23;17.60;82.80
4376;DHT22;2202;50.866;12.750;2022-09-13T09:01:57;17.70;79.80
4376;DHT22;2202;50.866;12.750;2022-09-13T09:04:37;17.80;79.80
4376;DHT22;2202;50.866;12.750;2022-09-13T09:07:10;17.90;79.80
4376;DHT22;2202;50.866;12.750;2022-09-13T09:09:42;18.30;80.60
4376;DHT22;2202;50.866;12.750;2022-09-13T09:12:17;19.00;76.80
4376;DHT22;2202;50.866;12.750;2022-09-13T09:14:55;19.20;72.80
4376;DHT22;2202;50.866;12.750;2022-09-13T09:17:27;19.10;70.60
4376;DHT22;2202;50.866;12.750;2022-09-13T09:20:02;19.10;72.40
4376;DHT22;2202;50.866;12.750;2022-09-13T09:22:34;19.40;71.20
4376;DHT22;2202;50.866;12.750;2022-09-13T09:25:02;19.60;74.00
4376;DHT22;2202;50.866;12.750;2022-09-13T09:27:30;19.80;73.60
4376;DHT22;2202;50.866;12.750;2022-09-13T09:29:59;20.20;71.60
4376;DHT22;2202;50.866;12.750;2022-09-13T09:35:42;20.60;65.80
4376;DHT22;2202;50.866;12.750;2022-09-13T09:38:25;20.60;64.40
4376;DHT22;2202;50.866;12.750;2022-09-13T09:40:59;20.30;68.20
4376;DHT22;2202;50.866;12.750;2022-09-13T09:43:34;20.20;69.60
4376;DHT22;2202;50.866;12.750;2022-09-13T09:46:06;20.00;69.60
4376;DHT22;2202;50.866;12.750;2022-09-13T09:48:40;20.00;66.20
4376;DHT22;2202;50.866;12.750;2022-09-13T09:51:10;20.20;67.00
4376;DHT22;2202;50.866;12.750;2022-09-13T09:53:40;20.50;63.60
4376;DHT22;2202;50.866;12.750;2022-09-13T09:56:19;20.70;66.40
4376;DHT22;2202;50.866;12.750;2022-09-13T09:58:48;20.80;64.20
4376;DHT22;2202;50.866;12.750;2022-09-13T10:01:20;20.80;63.00
4376;DHT22;2202;50.866;12.750;2022-09-13T10:03:51;20.60;65.60
4376;DHT22;2202;50.866;12.750;2022-09-13T10:06:22;20.50;65.80
4376;DHT22;2202;50.866;12.750;2022-09-13T10:08:55;20.40;65.60
4376;DHT22;2202;50.866;12.750;2022-09-13T10:11:41;20.00;67.60
4376;DHT22;2202;50.866;12.750;2022-09-13T10:14:27;19.80;67.80
4376;DHT22;2202;50.866;12.750;2022-09-13T10:17:13;19.80;67.00
4376;DHT22;2202;50.866;12.750;2022-09-13T10:19:46;19.70;67.20
4376;DHT22;2202;50.866;12.750;2022-09-13T10:22:17;19.40;67.60
4376;DHT22;2202;50.866;12.750;2022-09-13T10:24:44;19.30;69.80
4376;DHT22;2202;50.866;12.750;2022-09-13T10:27:31;19.30;69.20
4376;DHT22;2202;50.866;12.750;2022-09-13T10:30:02;19.30;70.40
4376;DHT22;2202;50.866;12.750;2022-09-13T10:32:30;19.30;72.00
4376;DHT22;2202;50.866;12.750;2022-09-13T10:35:02;19.40;70.20
4376;DHT22;2202;50.866;12.750;2022-09-13T10:37:33;19.40;70.60
4376;DHT22;2202;50.866;12.750;2022-09-13T10:40:03;19.30;70.00
4376;DHT22;2202;50.866;12.750;2022-09-13T10:42:32;19.30;69.40
4376;DHT22;2202;50.866;12.750;2022-09-13T10:45:02;19.40;70.80
4376;DHT22;2202;50.866;12.750;2022-09-13T10:47:33;19.30;70.60
4376;DHT22;2202;50.866;12.750;2022-09-13T10:50:18;19.30;71.00
4376;DHT22;2202;50.866;12.750;2022-09-13T10:52:46;19.40;70.00
4376;DHT22;2202;50.866;12.750;2022-09-13T10:55:28;19.50;70.20
4376;DHT22;2202;50.866;12.750;2022-09-13T10:58:12;19.50;69.40
4376;DHT22;2202;50.866;12.750;2022-09-13T11:00:55;19.50;68.80
4376;DHT22;2202;50.866;12.750;2022-09-13T11:03:37;19.50;69.40
4376;DHT22;2202;50.866;12.750;2022-09-13T11:06:15;19.70;67.20
4376;DHT22;2202;50.866;12.750;2022-09-13T11:08:53;19.90;65.60
4376;DHT22;2202;50.866;12.750;2022-09-13T11:11:26;20.00;65.00
4376;DHT22;2202;50.866;12.750;2022-09-13T11:14:15;20.10;63.60
4376;DHT22;2202;50.866;12.750;2022-09-13T11:16:56;20.10;62.80
4376;DHT22;2202;50.866;12.750;2022-09-13T11:19:48;20.10;63.00
4376;DHT22;2202;50.866;12.750;2022-09-13T11:22:31;20.40;63.20
4376;DHT22;2202;50.866;12.750;2022-09-13T11:25:11;20.50;59.90
4376;DHT22;2202;50.866;12.750;2022-09-13T11:27:48;20.90;60.10
4376;DHT22;2202;50.866;12.750;2022-09-13T11:30:19;20.90;60.80
4376;DHT22;2202;50.866;12.750;2022-09-13T11:33:13;21.10;62.00
4376;DHT22;2202;50.866;12.750;2022-09-13T11:35:51;21.10;57.40
4376;DHT22;2202;50.866;12.750;2022-09-13T11:38:35;20.90;59.40
4376;DHT22;2202;50.866;12.750;2022-09-13T11:41:14;20.90;59.80
4376;DHT22;2202;50.866;12.750;2022-09-13T11:43:58;20.80;58.50
4376;DHT22;2202;50.866;12.750;2022-09-13T11:46:31;20.80;60.80
4376;DHT22;2202;50.866;12.750;2022-09-13T11:49:30;20.60;59.40
4376;DHT22;2202;50.866;12.750;2022-09-13T11:52:08;20.60;61.60
4376;DHT22;2202;50.866;12.750;2022-09-13T11:55:00;20.40;62.00
4376;DHT22;2202;50.866;12.750;2022-09-13T11:57:32;20.40;64.80
4376;DHT22;2202;50.866;12.750;2022-09-13T12:00:03;20.60;64.00
4376;DHT22;2202;50.866;12.750;2022-09-13T12:02:38;20.60;63.20
4376;DHT22;2202;50.866;12.750;2022-09-13T12:05:10;20.70;64.00
4376;DHT22;2202;50.866;12.750;2022-09-13T12:07:43;20.80;62.20
4376;DHT22;2202;50.866;12.750;2022-09-13T12:10:16;20.80;62.80
4376;DHT22;2202;50.866;12.750;2022-09-13T12:12:45;20.90;62.40
4376;DHT22;2202;50.866;12.750;2022-09-13T12:15:20;20.80;63.40
4376;DHT22;2202;50.866;12.750;2022-09-13T12:17:50;20.80;62.60
4376;DHT22;2202;50.866;12.750;2022-09-13T12:20:28;21.00;63.00
4376;DHT22;2202;50.866;12.750;2022-09-13T12:22:58;21.00;64.40
4376;DHT22;2202;50.866;12.750;2022-09-13T12:25:33;21.00;62.60
4376;DHT22;2202;50.866;12.750;2022-09-13T12:28:09;21.20;64.00
4376;DHT22;2202;50.866;12.750;2022-09-13T12:30:43;21.30;63.40
4376;DHT22;2202;50.866;12.750;2022-09-13T12:33:13;21.40;63.80
4376;DHT22;2202;50.866;12.750;2022-09-13T12:35:49;21.50;61.80
4376;DHT22;2202;50.866;12.750;2022-09-13T12:41:24;21.50;62.80
4376;DHT22;2202;50.866;12.750;2022-09-13T12:44:26;21.50;63.60
4376;DHT22;2202;50.866;12.750;2022-09-13T12:50:28;21.60;61.00
4376;DHT22;2202;50.866;12.750;2022-09-13T12:53:11;21.40;61.60
4376;DHT22;2202;50.866;12.750;2022-09-13T12:56:00;21.50;59.90
4376;DHT22;2202;50.866;12.750;2022-09-13T12:58:39;21.60;58.90
4376;DHT22;2202;50.866;12.750;2022-09-13T13:01:09;21.60;58.30
4376;DHT22;2202;50.866;12.750;2022-09-13T13:03:44;21.70;59.80
4376;DHT22;2202;50.866;12.750;2022-09-13T13:06:24;21.70;58.90
4376;DHT22;2202;50.866;12.750;2022-09-13T13:08:55;21.50;61.20
4376;DHT22;2202;50.866;12.750;2022-09-13T13:11:24;21.40;61.20
4376;DHT22;2202;50.866;12.750;2022-09-13T13:13:55;21.40;62.40
4376;DHT22;2202;50.866;12.750;2022-09-13T13:16:25;21.40;61.20
4376;DHT22;2202;50.866;12.750;2022-09-13T13:18:53;21.40;61.00
4376;DHT22;2202;50.866;12.750;2022-09-13T13:21:26;21.40;60.80
4376;DHT22;2202;50.866;12.750;2022-09-13T13:27:37;21.20;58.30
4376;DHT22;2202;50.866;12.750;2022-09-13T13:30:48;21.30;58.70
4376;DHT22;2202;50.866;12.750;2022-09-13T13:33:22;21.50;59.60
4376;DHT22;2202;50.866;12.750;2022-09-13T13:35:50;21.30;58.00
4376;DHT22;2202;50.866;12.750;2022-09-13T13:38:38;21.20;58.30
4376;DHT22;2202;50.866;12.750;2022-09-13T13:41:17;21.10;59.60
4376;DHT22;2202;50.866;12.750;2022-09-13T13:43:56;21.10;59.60
4376;DHT22;2202;50.866;12.750;2022-09-13T13:46:27;21.10;60.60
4376;DHT22;2202;50.866;12.750;2022-09-13T13:48:55;21.10;59.80
4376;DHT22;2202;50.866;12.750;2022-09-13T13:51:42;21.00;60.20
4376;DHT22;2202;50.866;12.750;2022-09-13T13:54:27;21.00;60.80
4376;DHT22;2202;50.866;12.750;2022-09-13T13:56:56;21.00;59.60
4376;DHT22;2202;50.866;12.750;2022-09-13T13:59:29;21.00;59.90
4376;DHT22;2202;50.866;12.750;2022-09-13T14:01:58;21.00;59.00
4376;DHT22;2202;50.866;12.750;2022-09-13T14:05:06;21.00;60.40
4376;DHT22;2202;50.866;12.750;2022-09-13T14:08:06;21.00;61.20
4376;DHT22;2202;50.866;12.750;2022-09-13T14:10:43;21.10;61.00
4376;DHT22;2202;50.866;12.750;2022-09-13T14:13:24;21.20;60.10
4376;DHT22;2202;50.866;12.750;2022-09-13T14:16:05;21.40;60.80
4376;DHT22;2202;50.866;12.750;2022-09-13T14:21:37;21.70;59.00
4376;DHT22;2202;50.866;12.750;2022-09-13T14:24:17;21.90;58.70
4376;DHT22;2202;50.866;12.750;2022-09-13T14:26:45;22.00;58.70
4376;DHT22;2202;50.866;12.750;2022-09-13T14:29:16;21.90;58.00
4376;DHT22;2202;50.866;12.750;2022-09-13T14:31:47;21.90;59.90
4376;DHT22;2202;50.866;12.750;2022-09-13T14:34:20;21.90;58.20
4376;DHT22;2202;50.866;12.750;2022-09-13T14:36:52;21.90;56.70
4376;DHT22;2202;50.866;12.750;2022-09-13T14:39:20;22.00;57.40
4376;DHT22;2202;50.866;12.750;2022-09-13T14:41:48;21.90;56.00
4376;DHT22;2202;50.866;12.750;2022-09-13T14:44:24;21.80;58.20
4376;DHT22;2202;50.866;12.750;2022-09-13T14:46:57;21.80;59.00
4376;DHT22;2202;50.866;12.750;2022-09-13T14:49:29;21.90;59.60
4376;DHT22;2202;50.866;12.750;2022-09-13T14:52:00;21.80;58.30
4376;DHT22;2202;50.866;12.750;2022-09-13T14:54:32;21.90;58.50
4376;DHT22;2202;50.866;12.750;2022-09-13T14:57:01;21.70;57.60
4376;DHT22;2202;50.866;12.750;2022-09-13T14:59:32;21.90;59.20
4376;DHT22;2202;50.866;12.750;2022-09-13T15:02:05;22.00;59.00
4376;DHT22;2202;50.866;12.750;2022-09-13T15:04:32;22.10;59.20
4376;DHT22;2202;50.866;12.750;2022-09-13T15:07:07;22.10;58.90
4376;DHT22;2202;50.866;12.750;2022-09-13T15:09:34;22.10;59.00
4376;DHT22;2202;50.866;12.750;2022-09-13T15:12:03;22.20;59.80
4376;DHT22;2202;50.866;12.750;2022-09-13T15:14:31;22.30;60.20
4376;DHT22;2202;50.866;12.750;2022-09-13T15:17:10;22.20;57.60
4376;DHT22;2202;50.866;12.750;2022-09-13T15:19:42;22.10;58.70
4376;DHT22;2202;50.866;12.750;2022-09-13T15:22:20;22.10;58.50
4376;DHT22;2202;50.866;12.750;2022-09-13T15:24:50;22.10;59.40
4376;DHT22;2202;50.866;12.750;2022-09-13T15:27:25;21.90;59.20
4376;DHT22;2202;50.866;12.750;2022-09-13T15:29:54;21.90;59.80
4376;DHT22;2202;50.866;12.750;2022-09-13T15:32:29;21.70;59.20
4376;DHT22;2202;50.866;12.750;2022-09-13T15:34:57;21.70;59.40
4376;DHT22;2202;50.866;12.750;2022-09-13T15:37:35;21.70;59.80
4376;DHT22;2202;50.866;12.750;2022-09-13T15:40:17;21.70;60.40
4376;DHT22;2202;50.866;12.750;2022-09-13T15:42:49;21.80;60.80
4376;DHT22;2202;50.866;12.750;2022-09-13T15:45:17;21.80;61.20
4376;DHT22;2202;50.866;12.750;2022-09-13T15:47:47;21.80;60.40
4376;DHT22;2202;50.866;12.750;2022-09-13T15:50:20;21.90;61.60
4376;DHT22;2202;50.866;12.750;2022-09-13T15:52:47;21.90;60.80
4376;DHT22;2202;50.866;12.750;2022-09-13T15:55:14;21.90;61.80
4376;DHT22;2202;50.866;12.750;2022-09-13T15:57:43;21.90;60.80
4376;DHT22;2202;50.866;12.750;2022-09-13T16:00:14;21.90;62.00
4376;DHT22;2202;50.866;12.750;2022-09-13T16:02:41;21.90;61.80
4376;DHT22;2202;50.866;12.750;2022-09-13T16:05:09;22.00;61.00
4376;DHT22;2202;50.866;12.750;2022-09-13T16:07:38;22.10;61.40
4376;DHT22;2202;50.866;12.750;2022-09-13T16:10:10;22.20;61.20
4376;DHT22;2202;50.866;12.750;2022-09-13T16:12:38;22.20;59.60
4376;DHT22;2202;50.866;12.750;2022-09-13T16:15:05;22.30;58.50
4376;DHT22;2202;50.866;12.750;2022-09-13T16:17:33;22.40;58.50
4376;DHT22;2202;50.866;12.750;2022-09-13T16:19:59;22.50;58.50
4376;DHT22;2202;50.866;12.750;2022-09-13T16:22:28;22.60;58.90
4376;DHT22;2202;50.866;12.750;2022-09-13T16:24:55;22.60;57.30
4376;DHT22;2202;50.866;12.750;2022-09-13T16:27:22;22.40;56.40
4376;DHT22;2202;50.866;12.750;2022-09-13T16:29:51;22.30;57.10
4376;DHT22;2202;50.866;12.750;2022-09-13T16:32:18;22.10;56.20
4376;DHT22;2202;50.866;12.750;2022-09-13T16:34:45;21.90;56.90
4376;DHT22;2202;50.866;12.750;2022-09-13T16:37:13;21.80;56.20